Time;durP1;ratioP1;P1;durP2;ratioP2;P2;SDS_P1;SDS_P2;PMS_P1;PMS_P2;Temp;Humidity;BMP_temperature;BMP_pressure;BME280_temperature;BME280_humidity;BME280_pressure;Samples;Min_cycle;Max_cycle;Signal;HPM_P1;HPM_P2
2021/12/19 00:02:10;;;;;;;30.87;15.53;;;;;;;-0.13;100.00;100392.78;4969912;28;20197;-60
2021/12/19 00:04:53;;;;;;;27.77;14.83;;;;;;;-0.16;100.00;100387.72;4973863;28;20188;-60
2021/12/19 00:10:06;;;;;;;29.87;13.63;;;;;;;-0.26;100.00;100387.13;4971572;28;20338;-60
2021/12/19 00:12:33;;;;;;;23.87;12.20;;;;;;;-0.21;100.00;100397.28;4975741;28;20213;-58
2021/12/19 00:15:00;;;;;;;24.20;11.90;;;;;;;-0.19;100.00;100390.38;4975082;28;20221;-60
2021/12/19 00:17:27;;;;;;;25.13;12.37;;;;;;;-0.17;100.00;100386.03;4975986;28;20195;-58
2021/12/19 00:19:53;;;;;;;23.13;11.70;;;;;;;-0.12;100.00;100386.78;4975573;28;20276;-58
2021/12/19 00:22:21;;;;;;;22.03;11.60;;;;;;;-0.05;100.00;100375.47;4975080;28;20300;-58
2021/12/19 00:24:48;;;;;;;28.57;13.20;;;;;;;-0.07;100.00;100369.53;4975736;28;20213;-58
2021/12/19 00:27:15;;;;;;;23.30;12.23;;;;;;;-0.11;100.00;100380.75;4973665;28;20201;-59
2021/12/19 00:29:41;;;;;;;28.20;12.87;;;;;;;-0.05;100.00;100374.63;4974525;28;20197;-59
2021/12/19 00:32:08;;;;;;;21.77;11.57;;;;;;;-0.05;100.00;100387.47;4975449;28;20274;-57
2021/12/19 00:34:35;;;;;;;24.63;12.03;;;;;;;-0.16;100.00;100378.31;4975688;28;20215;-58
2021/12/19 00:37:02;;;;;;;22.83;12.07;;;;;;;-0.13;100.00;100372.25;4975112;28;20204;-59
2021/12/19 00:39:30;;;;;;;24.33;11.97;;;;;;;-0.14;100.00;100373.13;4975214;28;20284;-60
2021/12/19 00:41:57;;;;;;;22.17;11.90;;;;;;;-0.15;100.00;100379.16;4974858;28;20669;-58
2021/12/19 00:44:25;;;;;;;23.67;12.00;;;;;;;-0.18;100.00;100372.38;4974949;28;20577;-57
2021/12/19 00:47:04;;;;;;;23.50;12.07;;;;;;;-0.12;100.00;100373.94;4975378;28;20188;-60
2021/12/19 00:49:31;;;;;;;23.93;11.80;;;;;;;-0.11;100.00;100370.50;4973293;28;20189;-58
2021/12/19 00:51:58;;;;;;;23.33;11.37;;;;;;;-0.04;100.00;100363.50;4974034;28;20615;-58
2021/12/19 00:54:24;;;;;;;20.43;11.03;;;;;;;0.04;100.00;100366.66;4975014;28;20190;-58
2021/12/19 00:56:52;;;;;;;24.03;11.87;;;;;;;0.03;100.00;100354.72;4975130;28;20208;-58
2021/12/19 00:59:19;;;;;;;24.17;12.20;;;;;;;0.12;100.00;100357.03;4974824;28;20199;-57
2021/12/19 01:01:47;;;;;;;23.03;11.53;;;;;;;0.18;100.00;100355.19;4974348;28;20186;-59
2021/12/19 01:04:16;;;;;;;22.07;10.57;;;;;;;0.24;100.00;100352.44;4975150;28;20308;-58
2021/12/19 01:06:45;;;;;;;23.23;11.87;;;;;;;0.31;100.00;100355.72;4974321;28;20578;-58
2021/12/19 01:09:13;;;;;;;23.67;12.43;;;;;;;0.35;100.00;100344.47;4965020;28;20448;-58
2021/12/19 01:11:40;;;;;;;22.03;11.90;;;;;;;0.36;100.00;100344.41;4959438;28;20268;-58
2021/12/19 01:14:09;;;;;;;23.00;11.63;;;;;;;0.39;100.00;100341.75;4973605;28;20203;-59
2021/12/19 01:16:36;;;;;;;21.63;11.10;;;;;;;0.39;100.00;100346.06;4973606;28;20239;-58
2021/12/19 01:19:03;;;;;;;20.33;9.80;;;;;;;0.36;100.00;100339.28;4974862;28;20192;-57
2021/12/19 01:21:30;;;;;;;19.60;10.57;;;;;;;0.34;100.00;100341.03;4973793;28;20196;-58
2021/12/19 01:23:56;;;;;;;20.23;11.53;;;;;;;0.31;100.00;100336.00;4974447;28;20857;-57
2021/12/19 01:26:24;;;;;;;19.63;11.07;;;;;;;0.29;100.00;100341.19;4974678;28;20301;-59
2021/12/19 01:28:50;;;;;;;17.43;9.63;;;;;;;0.27;100.00;100345.53;4974027;28;20284;-58
2021/12/19 01:31:19;;;;;;;17.20;9.63;;;;;;;0.26;100.00;100346.41;4974193;28;20193;-58
2021/12/19 01:33:46;;;;;;;19.93;10.00;;;;;;;0.27;100.00;100336.97;4974285;28;20220;-59
2021/12/19 01:36:13;;;;;;;21.87;12.97;;;;;;;0.29;100.00;100332.63;4974129;28;20212;-58
2021/12/19 01:38:40;;;;;;;19.23;9.23;;;;;;;0.27;100.00;100334.38;4974750;28;20520;-57
2021/12/19 01:41:07;;;;;;;14.57;8.10;;;;;;;0.27;100.00;100334.38;4973627;28;20193;-57
2021/12/19 01:43:34;;;;;;;16.90;8.63;;;;;;;0.31;100.00;100337.72;4973680;28;20559;-59
2021/12/19 01:46:00;;;;;;;15.70;8.23;;;;;;;0.36;100.00;100334.13;4974451;28;20213;-58
2021/12/19 01:48:29;;;;;;;16.03;8.97;;;;;;;0.39;100.00;100336.63;4974152;28;20257;-58
2021/12/19 01:50:56;;;;;;;18.30;9.63;;;;;;;0.36;100.00;100330.75;4973325;28;20211;-59
2021/12/19 01:53:22;;;;;;;20.03;10.20;;;;;;;0.29;100.00;100328.34;4974086;28;20243;-57
2021/12/19 01:55:52;;;;;;;22.03;10.50;;;;;;;0.32;100.00;100336.84;4973824;28;20582;-57
2021/12/19 01:58:20;;;;;;;20.10;10.30;;;;;;;0.26;100.00;100330.13;4973098;28;20696;-59
2021/12/19 02:00:51;;;;;;;18.30;9.63;;;;;;;0.27;100.00;100334.38;4973163;28;20208;-58
2021/12/19 02:03:19;;;;;;;16.63;9.80;;;;;;;0.25;100.00;100333.59;4973644;28;20231;-60
2021/12/19 02:05:47;;;;;;;18.27;8.87;;;;;;;0.28;100.00;100325.81;4973156;28;20503;-60
2021/12/19 02:08:15;;;;;;;15.20;8.07;;;;;;;0.23;100.00;100315.66;4972770;28;20189;-59
2021/12/19 02:10:43;;;;;;;16.40;8.67;;;;;;;0.12;100.00;100333.94;4959912;28;20225;-58
2021/12/19 02:13:12;;;;;;;19.20;9.53;;;;;;;0.19;100.00;100334.63;4964069;28;20580;-58
2021/12/19 02:15:40;;;;;;;19.23;9.23;;;;;;;0.22;100.00;100333.69;4965472;28;20228;-60
2021/12/19 02:18:10;;;;;;;17.57;9.23;;;;;;;0.24;100.00;100329.34;4964339;28;20287;-58
2021/12/19 02:20:40;;;;;;;18.03;8.73;;;;;;;0.27;100.00;100340.38;4962229;28;20699;-59
2021/12/19 02:23:07;;;;;;;19.43;8.13;;;;;;;0.31;100.00;100335.16;4968347;28;20193;-60
2021/12/19 02:25:34;;;;;;;14.37;8.00;;;;;;;0.37;100.00;100338.38;4966092;28;20244;-59
2021/12/19 02:28:01;;;;;;;13.33;8.00;;;;;;;0.42;100.00;100333.97;4963991;28;20221;-60
2021/12/19 02:30:28;;;;;;;14.30;7.13;;;;;;;0.44;100.00;100337.34;4972655;28;20188;-58
2021/12/19 02:32:55;;;;;;;12.23;6.77;;;;;;;0.49;100.00;100341.50;4972861;28;20635;-61
2021/12/19 02:35:26;;;;;;;12.43;7.27;;;;;;;0.46;100.00;100332.16;4972855;28;20215;-59
2021/12/19 02:38:27;;;;;;;12.37;6.50;;;;;;;0.47;100.00;100326.13;4973751;28;20231;-60
2021/12/19 02:49:22;;;;;;;17.20;8.83;;;;;;;0.46;100.00;100321.88;4973214;28;20264;-57
2021/12/19 02:51:51;;;;;;;20.07;9.20;;;;;;;0.47;100.00;100318.44;4971980;28;20219;-59
2021/12/19 02:54:19;;;;;;;15.33;8.30;;;;;;;0.49;100.00;100318.38;4984671;28;20181;-60
2021/12/19 02:56:45;;;;;;;17.13;9.03;;;;;;;0.49;100.00;100313.22;4992411;28;20272;-60
2021/12/19 02:59:12;;;;;;;17.90;8.90;;;;;;;0.50;100.00;100308.06;4991719;28;20187;-58
2021/12/19 03:01:41;;;;;;;17.90;9.60;;;;;;;0.51;100.00;100316.59;4991879;28;20191;-58
2021/12/19 03:04:08;;;;;;;18.40;9.20;;;;;;;0.58;100.00;100312.97;4992243;28;20255;-60
2021/12/19 03:06:35;;;;;;;20.67;9.40;;;;;;;0.54;100.00;100307.06;4991844;28;20201;-60
2021/12/19 03:09:06;;;;;;;19.77;8.60;;;;;;;0.63;100.00;100298.25;4991959;28;20452;-60
2021/12/19 03:20:00;;;;;;;18.13;8.63;;;;;;;0.76;100.00;100295.31;4952312;28;20196;-58
2021/12/19 03:22:27;;;;;;;27.97;10.57;;;;;;;0.73;100.00;100293.66;4953335;28;20191;-58
2021/12/19 03:24:54;;;;;;;25.27;10.83;;;;;;;0.76;100.00;100293.56;4963117;28;20229;-58
2021/12/19 03:27:22;;;;;;;18.27;9.00;;;;;;;0.73;100.00;100298.81;4961225;28;20201;-58
2021/12/19 03:29:49;;;;;;;17.87;9.23;;;;;;;0.74;100.00;100297.91;4962084;28;20675;-57
2021/12/19 03:32:15;;;;;;;17.20;8.37;;;;;;;0.71;100.00;100304.00;4963664;28;20198;-55
2021/12/19 03:34:42;;;;;;;12.40;7.50;;;;;;;0.72;100.00;100300.53;4968038;28;20638;-59
2021/12/19 03:37:09;;;;;;;14.03;7.93;;;;;;;0.73;100.00;100303.94;4989707;23;20319;-53
2021/12/19 03:39:54;;;;;;;15.67;8.00;;;;;;;0.76;100.00;100296.13;5009518;28;20212;-52
2021/12/19 03:42:23;;;;;;;12.37;7.50;;;;;;;0.78;100.00;100290.97;5011007;28;20208;-54
2021/12/19 03:44:50;;;;;;;13.47;7.37;;;;;;;0.77;100.00;100289.28;5005097;28;20211;-53
2021/12/19 03:47:17;;;;;;;15.17;7.97;;;;;;;0.71;100.00;100292.88;5000756;28;20572;-54
2021/12/19 03:49:44;;;;;;;15.90;8.53;;;;;;;0.63;100.00;100285.41;4982336;28;20665;-54
2021/12/19 03:52:10;;;;;;;15.87;8.33;;;;;;;0.72;100.00;100282.56;4990926;28;20209;-55
2021/12/19 03:54:37;;;;;;;13.67;7.53;;;;;;;0.75;100.00;100273.88;4987985;28;20287;-53
2021/12/19 03:57:07;;;;;;;16.73;7.53;;;;;;;0.80;100.00;100268.63;4984421;28;20660;-52
2021/12/19 03:59:35;;;;;;;14.73;7.80;;;;;;;0.80;100.00;100266.88;4990802;28;20283;-55
2021/12/19 04:02:02;;;;;;;16.60;8.70;;;;;;;0.78;100.00;100262.69;4990320;28;20198;-53
2021/12/19 04:04:30;;;;;;;16.20;8.00;;;;;;;0.78;100.00;100265.25;4991228;28;20561;-52
2021/12/19 04:06:57;;;;;;;15.83;8.77;;;;;;;0.73;100.00;100273.97;4988435;28;20201;-53
2021/12/19 04:09:24;;;;;;;15.80;8.30;;;;;;;0.77;100.00;100272.13;4985766;28;20284;-53
2021/12/19 04:11:54;;;;;;;14.73;8.00;;;;;;;0.79;100.00;100265.19;4985794;28;20195;-49
2021/12/19 04:14:21;;;;;;;13.60;7.67;;;;;;;0.82;100.00;100265.09;4987924;28;20267;-52
2021/12/19 04:16:49;;;;;;;15.27;8.13;;;;;;;0.83;100.00;100264.22;4986501;28;20190;-54
2021/12/19 04:19:23;;;;;;;12.70;6.97;;;;;;;0.87;100.00;100260.66;4987681;28;20716;-54
2021/12/19 04:21:49;;;;;;;12.87;7.00;;;;;;;0.88;100.00;100269.22;4981876;28;20221;-54
2021/12/19 04:24:16;;;;;;;16.10;7.87;;;;;;;0.91;100.00;100269.13;4991030;28;20228;-52
2021/12/19 04:26:43;;;;;;;16.40;9.00;;;;;;;0.84;100.00;100265.06;4984756;28;20297;-52
2021/12/19 04:29:11;;;;;;;16.83;8.63;;;;;;;0.82;100.00;100267.69;4985811;28;20608;-54
2021/12/19 04:31:40;;;;;;;15.37;8.93;;;;;;;0.86;100.00;100264.13;4987400;28;20225;-57
2021/12/19 04:34:08;;;;;;;19.07;8.57;;;;;;;0.90;100.00;100258.88;4987547;28;20278;-55
2021/12/19 04:36:39;;;;;;;20.60;9.10;;;;;;;0.88;100.00;100259.78;4991280;28;20272;-56
2021/12/19 04:53:09;;;;;;;16.97;8.90;;;;;;;0.88;100.00;100235.81;4994437;28;20272;-50
2021/12/19 04:55:50;;;;;;;17.60;8.97;;;;;;;0.84;100.00;100236.78;4993287;28;20291;-53
2021/12/19 04:58:34;;;;;;;20.47;10.03;;;;;;;0.81;100.00;100231.75;4994721;28;20229;-53
2021/12/19 05:01:12;;;;;;;18.47;8.67;;;;;;;0.88;100.00;100230.66;4994054;28;20206;-57
2021/12/19 05:03:46;;;;;;;16.23;9.10;;;;;;;0.90;100.00;100228.88;4993922;28;20197;-53
2021/12/19 05:06:21;;;;;;;17.60;8.87;;;;;;;0.96;100.00;100231.25;4994482;28;20188;-59
2021/12/19 05:14:21;;;;;;;12.53;6.67;;;;;;;0.90;100.00;100223.75;4979410;28;20251;-56
2021/12/19 05:16:49;;;;;;;10.13;5.40;;;;;;;0.88;100.00;100226.34;4974331;28;20257;-54
2021/12/19 05:19:24;;;;;;;11.47;5.20;;;;;;;0.93;100.00;100230.50;4976750;28;20196;-54
2021/12/19 05:21:57;;;;;;;11.77;5.67;;;;;;;0.98;100.00;100236.34;4973832;28;20283;-54
2021/12/19 05:27:09;;;;;;;17.97;7.23;;;;;;;1.11;100.00;100226.47;4974671;28;20217;-54
2021/12/19 05:29:37;;;;;;;13.87;6.20;;;;;;;1.10;100.00;100235.09;4973714;28;20192;-54
2021/12/19 05:32:05;;;;;;;12.43;6.07;;;;;;;1.11;100.00;100245.34;4974238;28;20195;-57
2021/12/19 05:34:32;;;;;;;11.97;5.53;;;;;;;1.08;100.00;100248.00;4974724;28;20197;-53
2021/12/19 05:45:19;;;;;;;10.80;5.33;;;;;;;1.03;100.00;100243.03;4955700;28;20233;-54
2021/12/19 05:47:49;;;;;;;10.73;5.70;;;;;;;1.05;100.00;100235.25;4980903;28;20686;-51
2021/12/19 05:50:17;;;;;;;10.93;6.00;;;;;;;0.96;100.00;100226.13;4993185;28;20611;-53
2021/12/19 05:52:48;;;;;;;12.07;6.03;;;;;;;1.05;100.00;100224.13;4993375;28;20280;-54
2021/12/19 05:55:15;;;;;;;12.57;5.60;;;;;;;1.01;100.00;100228.53;4990331;28;20281;-51
2021/12/19 05:57:43;;;;;;;10.67;5.43;;;;;;;0.99;100.00;100225.16;4990197;28;20220;-51
2021/12/19 06:00:14;;;;;;;13.23;6.33;;;;;;;1.00;100.00;100217.41;4992937;28;20197;-52
2021/12/19 06:02:42;;;;;;;12.20;6.33;;;;;;;0.97;100.00;100219.22;4992641;28;20754;-51
2021/12/19 06:05:10;;;;;;;10.47;6.30;;;;;;;0.93;100.00;100212.50;4993200;28;20296;-52
2021/12/19 06:07:37;;;;;;;11.43;5.53;;;;;;;0.86;100.00;100215.28;4993287;28;20211;-55
2021/12/19 06:10:06;;;;;;;11.80;5.53;;;;;;;0.83;100.00;100207.66;4992627;28;20264;-51
2021/12/19 06:12:33;;;;;;;12.27;6.75;;;;;;;0.91;100.00;100199.72;4991717;28;20443;-54
2021/12/19 06:15:00;;;;;;;9.47;5.60;;;;;;;0.88;100.00;100205.78;4984826;28;20268;-52
2021/12/19 06:17:27;;;;;;;10.23;5.37;;;;;;;0.89;100.00;100206.63;4992648;28;20557;-52
2021/12/19 06:19:54;;;;;;;12.70;5.67;;;;;;;0.83;100.00;100201.69;4992590;28;20204;-53
2021/12/19 06:22:20;;;;;;;10.67;5.87;;;;;;;0.83;100.00;100196.56;4993329;28;20330;-51
2021/12/19 06:24:47;;;;;;;12.80;6.43;;;;;;;0.84;100.00;100190.53;4992475;28;20199;-52
2021/12/19 06:27:15;;;;;;;11.47;6.43;;;;;;;0.86;100.00;100186.16;4993162;28;20693;-53
2021/12/19 06:29:42;;;;;;;32.60;13.13;;;;;;;0.87;100.00;100185.28;4992143;28;20272;-54
2021/12/19 06:32:09;;;;;;;12.70;6.80;;;;;;;0.90;100.00;100180.03;4992553;28;20213;-53
2021/12/19 06:34:36;;;;;;;15.83;7.90;;;;;;;0.93;100.00;100181.66;4992908;28;20196;-53
2021/12/19 06:37:08;;;;;;;11.47;6.63;;;;;;;0.95;100.00;100179.88;4991743;28;20263;-54
2021/12/19 06:39:34;;;;;;;11.37;6.63;;;;;;;0.99;100.00;100178.88;4992059;28;20192;-54
2021/12/19 06:42:01;;;;;;;10.63;6.30;;;;;;;1.01;100.00;100177.09;4992665;28;20185;-55
2021/12/19 06:44:29;;;;;;;13.47;7.23;;;;;;;1.00;100.00;100176.28;4992315;28;20292;-54
2021/12/19 06:46:56;;;;;;;11.30;6.80;;;;;;;0.91;100.00;100174.00;4992306;28;20267;-52
2021/12/19 06:49:23;;;;;;;10.87;5.73;;;;;;;0.91;100.00;100171.44;4992643;28;20197;-54
2021/12/19 06:51:50;;;;;;;10.60;5.57;;;;;;;0.86;100.00;100174.13;4972633;28;20221;-53
2021/12/19 06:54:17;;;;;;;11.83;5.37;;;;;;;0.82;100.00;100171.72;4972678;28;20196;-57
2021/12/19 06:56:43;;;;;;;8.73;4.73;;;;;;;0.81;100.00;100167.47;4973295;28;20194;-53
2021/12/19 06:59:10;;;;;;;12.23;5.53;;;;;;;0.80;100.00;100165.81;4973331;28;20241;-53
2021/12/19 07:01:39;;;;;;;8.63;5.10;;;;;;;0.79;100.00;100179.53;4972352;28;20186;-55
2021/12/19 07:04:07;;;;;;;10.93;5.37;;;;;;;0.83;100.00;100178.56;4974043;28;20559;-54
2021/12/19 07:06:34;;;;;;;12.10;5.73;;;;;;;0.77;100.00;100176.19;4992264;28;20293;-54
2021/12/19 07:09:01;;;;;;;13.77;5.20;;;;;;;0.76;100.00;100172.75;4991561;28;20236;-55
2021/12/19 07:11:28;;;;;;;10.50;5.47;;;;;;;0.77;100.00;100176.19;4991615;28;20280;-56
2021/12/19 07:13:54;;;;;;;14.57;5.23;;;;;;;0.79;100.00;100177.81;4988635;28;20566;-55
2021/12/19 07:16:21;;;;;;;10.83;5.73;;;;;;;0.78;100.00;100172.72;4985018;28;20224;-52
2021/12/19 07:18:49;;;;;;;10.67;5.17;;;;;;;0.68;100.00;100178.16;4992250;28;20236;-56
2021/12/19 07:21:16;;;;;;;12.90;5.37;;;;;;;0.74;100.00;100177.09;4991354;28;20275;-54
2021/12/19 07:23:43;;;;;;;12.43;6.87;;;;;;;0.76;100.00;100177.91;4991510;28;20290;-52
2021/12/19 07:26:11;;;;;;;11.80;6.87;;;;;;;0.78;100.00;100178.69;4991950;28;20630;-55
2021/12/19 07:28:40;;;;;;;11.63;6.17;;;;;;;0.69;100.00;100167.00;4992202;28;20263;-56
2021/12/19 07:31:06;;;;;;;12.10;5.70;;;;;;;0.69;100.00;100161.84;4990823;28;20594;-54
2021/12/19 07:33:34;;;;;;;15.47;6.53;;;;;;;0.73;100.00;100163.44;4991637;28;20744;-53
2021/12/19 07:36:03;;;;;;;12.30;5.90;;;;;;;0.73;100.00;100171.13;4991775;28;20185;-55
2021/12/19 07:38:34;;;;;;;10.20;5.57;;;;;;;0.77;100.00;100168.47;4991186;28;20274;-56
2021/12/19 07:41:02;;;;;;;10.20;5.70;;;;;;;0.72;100.00;100169.47;4991750;28;20534;-53
2021/12/19 07:43:29;;;;;;;14.88;7.65;;;;;;;0.78;100.00;100159.88;4990783;28;20440;-52
2021/12/19 07:45:56;;;;;;;13.43;5.87;;;;;;;0.86;100.00;100166.44;4990871;28;20639;-53
2021/12/19 07:48:23;;;;;;;10.67;5.57;;;;;;;0.91;100.00;100161.16;4992140;28;20291;-53
2021/12/19 07:50:50;;;;;;;10.10;5.50;;;;;;;0.88;100.00;100163.81;4991018;28;20319;-55
2021/12/19 07:53:18;;;;;;;12.23;5.50;;;;;;;0.91;100.00;100161.16;4991065;28;20280;-53
2021/12/19 07:55:45;;;;;;;11.23;5.83;;;;;;;0.90;100.00;100161.19;4991669;28;20187;-53
2021/12/19 07:58:12;;;;;;;10.23;5.33;;;;;;;0.93;100.00;100156.78;4990021;28;20237;-53
2021/12/19 08:00:39;;;;;;;10.30;5.37;;;;;;;0.94;100.00;100157.63;4990672;28;20196;-55
2021/12/19 08:03:06;;;;;;;7.40;4.00;;;;;;;0.91;100.00;100161.16;4991783;28;20188;-55
2021/12/19 08:05:33;;;;;;;11.00;5.50;;;;;;;0.89;100.00;100160.34;4991223;28;20205;-53
2021/12/19 08:08:03;;;;;;;10.50;5.07;;;;;;;0.89;100.00;100152.66;4991156;28;20606;-53
2021/12/19 08:13:17;;;;;;;10.30;6.22;;;;;;;0.77;100.00;100166.72;4990673;28;20436;-55
2021/12/19 08:15:44;;;;;;;9.23;4.93;;;;;;;0.82;100.00;100167.41;4984243;28;20201;-54
2021/12/19 08:18:11;;;;;;;9.70;5.00;;;;;;;0.85;100.00;100161.34;4988488;28;20221;-55
2021/12/19 08:20:37;;;;;;;10.77;5.33;;;;;;;0.85;100.00;100156.22;4991039;28;20280;-56
2021/12/19 08:23:04;;;;;;;9.07;4.90;;;;;;;0.88;100.00;100153.53;4989526;28;20197;-54
2021/12/19 08:25:32;;;;;;;19.47;11.40;;;;;;;0.86;100.00;100160.47;4988053;28;20241;-54
2021/12/19 08:27:59;;;;;;;13.97;7.10;;;;;;;0.84;100.00;100160.50;4995311;28;20236;-56
2021/12/19 08:30:28;;;;;;;12.87;6.40;;;;;;;0.96;100.00;100158.41;4993950;28;20515;-54
2021/12/19 08:32:56;;;;;;;12.77;7.33;;;;;;;1.03;100.00;100158.16;4995231;28;20642;-55
2021/12/19 08:35:24;;;;;;;12.63;6.30;;;;;;;1.09;100.00;100163.97;4994683;28;20650;-54
2021/12/19 08:37:51;;;;;;;12.13;5.40;;;;;;;1.16;100.00;100162.88;4994717;28;20219;-53
2021/12/19 08:40:21;;;;;;;14.23;6.83;;;;;;;1.22;100.00;100169.53;4994525;28;20193;-55
2021/12/19 08:42:50;;;;;;;13.93;7.60;;;;;;;1.24;100.00;100162.63;4995058;28;20753;-56
2021/12/19 08:45:17;;;;;;;9.13;5.47;;;;;;;1.24;100.00;100160.88;4994468;28;20209;-55
2021/12/19 08:47:44;;;;;;;11.60;5.97;;;;;;;1.29;100.00;100160.72;4994431;28;20211;-53
2021/12/19 08:50:12;;;;;;;11.43;5.33;;;;;;;1.24;100.00;100163.44;4994244;28;20194;-55
2021/12/19 08:52:39;;;;;;;13.43;5.37;;;;;;;1.27;100.00;100157.38;4993185;28;20196;-53
2021/12/19 08:55:07;;;;;;;10.20;5.73;;;;;;;1.33;100.00;100155.41;4990994;28;20186;-55
2021/12/19 08:57:34;;;;;;;9.63;5.30;;;;;;;1.30;100.00;100140.06;4994320;28;20213;-54
2021/12/19 09:00:05;;;;;;;11.70;6.53;;;;;;;1.35;100.00;100139.06;4993206;28;20197;-56
2021/12/19 09:02:32;;;;;;;12.88;7.28;;;;;;;1.37;100.00;100137.28;4994006;28;20431;-57
2021/12/19 09:04:58;;;;;;;12.67;6.00;;;;;;;1.35;100.00;100134.78;4994664;28;20534;-54
2021/12/19 09:07:25;;;;;;;10.70;5.93;;;;;;;1.31;100.00;100139.19;4993850;28;20701;-53
2021/12/19 09:09:52;;;;;;;10.80;6.43;;;;;;;1.38;100.00;100149.25;4993610;28;20562;-56
2021/12/19 09:12:18;;;;;;;11.87;6.33;;;;;;;1.37;99.88;100153.56;4994198;28;20565;-53
2021/12/19 09:14:45;;;;;;;12.37;6.27;;;;;;;1.27;99.31;100152.22;4994063;28;20185;-54
2021/12/19 09:17:13;;;;;;;14.93;6.50;;;;;;;1.33;100.00;100145.09;4984535;28;20217;-56
2021/12/19 09:19:41;;;;;;;17.20;6.83;;;;;;;1.28;99.96;100141.03;4993767;28;20275;-56
2021/12/19 09:22:07;;;;;;;23.30;7.20;;;;;;;1.26;100.00;100150.53;4993838;28;20177;-56
2021/12/19 09:24:35;;;;;;;14.40;7.47;;;;;;;1.20;100.00;100156.72;4994249;28;20186;-57
2021/12/19 09:27:03;;;;;;;12.60;6.67;;;;;;;1.25;100.00;100149.69;4994306;28;20605;-52
2021/12/19 09:29:30;;;;;;;13.30;6.47;;;;;;;1.30;100.00;100146.97;4994464;28;20635;-52
2021/12/19 09:31:59;;;;;;;14.50;7.43;;;;;;;1.27;100.00;100147.91;4993751;28;20189;-56
2021/12/19 09:34:27;;;;;;;18.80;11.13;;;;;;;1.30;100.00;100147.78;4994484;28;20193;-56
2021/12/19 09:36:55;;;;;;;17.23;8.67;;;;;;;1.28;100.00;100149.56;4992777;28;20189;-53
2021/12/19 09:39:22;;;;;;;13.63;6.23;;;;;;;1.37;100.00;100160.44;4993959;28;20200;-58
2021/12/19 09:41:54;;;;;;;15.90;8.20;;;;;;;1.32;100.00;100156.28;4993213;28;20662;-58
2021/12/19 09:44:21;;;;;;;14.27;7.33;;;;;;;1.40;100.00;100152.63;4993487;28;20200;-57
2021/12/19 09:46:50;;;;;;;15.27;7.13;;;;;;;1.40;100.00;100138.03;4993807;28;20237;-55
2021/12/19 09:49:19;;;;;;;15.27;7.30;;;;;;;1.42;100.00;100140.53;4993703;28;20215;-56
2021/12/19 09:51:49;;;;;;;15.73;7.53;;;;;;;1.39;100.00;100141.50;4992552;28;20189;-55
2021/12/19 09:54:16;;;;;;;15.03;6.73;;;;;;;1.37;100.00;100130.44;4993807;28;20181;-55
2021/12/19 09:56:43;;;;;;;16.63;8.57;;;;;;;1.45;100.00;100127.56;4993945;28;20516;-50
2021/12/19 09:59:12;;;;;;;15.30;8.50;;;;;;;1.42;100.00;100130.25;4991570;28;20215;-53
2021/12/19 10:01:39;;;;;;;16.83;7.93;;;;;;;1.49;100.00;100141.16;4992671;28;20193;-55
2021/12/19 10:04:33;;;;;;;16.07;7.77;;;;;;;1.39;99.48;100136.34;4993590;28;20651;-50
2021/12/19 10:07:11;;;;;;;16.33;8.13;;;;;;;1.38;100.00;100124.38;4992788;28;20209;-51
2021/12/19 10:09:50;;;;;;;24.10;8.57;;;;;;;1.41;100.00;100123.41;4992823;28;20217;-51
2021/12/19 10:15:10;;;;;;;18.07;8.50;;;;;;;1.36;100.00;100115.03;4987904;28;20279;-50
2021/12/19 10:17:37;;;;;;;19.10;8.27;;;;;;;1.31;100.00;100117.78;4986696;28;20575;-49
2021/12/19 10:20:08;;;;;;;30.00;9.10;;;;;;;1.28;100.00;100115.31;4989075;28;20201;-52
2021/12/19 10:22:38;;;;;;;22.77;7.77;;;;;;;1.32;100.00;100109.16;4992868;28;20272;-55
2021/12/19 10:25:17;;;;;;;16.83;8.60;;;;;;;1.37;100.00;100098.69;4993261;28;20272;-52
2021/12/19 10:27:46;;;;;;;18.93;8.30;;;;;;;1.37;100.00;100101.25;4992123;28;20205;-53
2021/12/19 10:30:18;;;;;;;15.60;7.80;;;;;;;1.33;100.00;100097.97;4992394;28;20185;-50
2021/12/19 10:32:53;;;;;;;12.80;7.30;;;;;;;1.49;100.00;100097.44;4993223;28;20201;-50
2021/12/19 10:35:23;;;;;;;15.83;7.10;;;;;;;1.54;99.75;100092.94;4992464;28;20216;-53
2021/12/19 10:37:52;;;;;;;12.00;6.77;;;;;;;1.46;99.64;100088.06;4992610;28;20213;-53
2021/12/19 10:40:19;;;;;;;14.93;7.30;;;;;;;1.48;99.88;100078.56;4992302;28;20189;-52
2021/12/19 10:42:49;;;;;;;14.18;8.07;;;;;;;1.49;99.56;100069.94;4991738;28;20917;-51
2021/12/19 10:45:32;;;;;;;10.43;6.57;;;;;;;1.52;99.04;100072.41;4992727;28;20268;-50
2021/12/19 10:48:20;;;;;;;15.70;7.93;;;;;;;1.71;100.00;100061.41;4992276;28;20208;-50
2021/12/19 10:50:51;;;;;;;16.77;8.17;;;;;;;1.81;100.00;100064.47;4991021;28;20193;-50
2021/12/19 10:53:23;;;;;;;19.67;10.03;;;;;;;1.81;99.67;100061.88;4992809;28;20189;-53
2021/12/19 10:55:51;;;;;;;21.20;11.80;;;;;;;1.92;99.01;100063.16;4990443;28;20188;-51
2021/12/19 10:58:20;;;;;;;21.10;12.40;;;;;;;1.99;98.32;100066.31;4991620;28;20293;-54
2021/12/19 11:00:56;;;;;;;21.23;11.20;;;;;;;1.92;97.59;100065.75;4984443;28;20539;-52
2021/12/19 11:03:58;;;;;;;17.87;8.50;;;;;;;2.00;97.85;100059.44;4992243;28;20305;-50
2021/12/19 11:06:37;;;;;;;14.90;7.47;;;;;;;2.08;98.22;100047.09;4987681;28;20227;-53
2021/12/19 11:09:11;;;;;;;32.40;16.60;;;;;;;2.11;96.65;100040.97;4992486;28;20247;-56
2021/12/19 11:11:48;;;;;;;32.53;16.00;;;;;;;2.01;96.33;100030.22;4991366;28;20280;-51
2021/12/19 11:14:18;;;;;;;15.20;9.07;;;;;;;2.05;96.55;100027.44;4992387;28;20228;-51
2021/12/19 11:16:45;;;;;;;14.80;7.30;;;;;;;2.13;95.81;100021.16;4992208;28;20209;-50
2021/12/19 11:19:13;;;;;;;14.50;6.53;;;;;;;2.09;95.83;100022.16;4980338;28;20229;-52
2021/12/19 11:21:40;;;;;;;16.27;9.00;;;;;;;2.17;95.31;100009.81;4991051;28;20185;-50
2021/12/19 11:24:11;;;;;;;9.73;5.93;;;;;;;2.22;94.55;100006.13;4992077;28;20272;-55
2021/12/19 11:26:40;;;;;;;12.37;6.60;;;;;;;2.26;93.79;100012.03;4991726;28;20220;-50
2021/12/19 11:29:10;;;;;;;9.40;5.37;;;;;;;2.37;94.03;99990.94;4991495;28;20228;-55
2021/12/19 11:31:39;;;;;;;13.47;6.97;;;;;;;2.44;94.31;99983.81;4991288;28;20192;-50
2021/12/19 11:34:30;;;;;;;17.40;11.53;;;;;;;2.48;93.82;99988.75;4991879;28;20200;-53
2021/12/19 11:37:03;;;;;;;11.90;6.40;;;;;;;2.42;92.56;99986.44;4991927;28;20713;-53
2021/12/19 11:39:34;;;;;;;15.57;9.40;;;;;;;2.38;93.12;99971.19;4991742;28;20191;-50
2021/12/19 11:42:07;;;;;;;10.90;6.63;;;;;;;2.36;91.64;99966.94;4991095;28;20200;-55
2021/12/19 11:44:40;;;;;;;14.50;7.37;;;;;;;2.46;91.68;99957.06;4991902;28;20190;-53
2021/12/19 11:47:14;;;;;;;9.67;5.80;;;;;;;2.54;91.84;99961.91;4990196;28;20209;-50
2021/12/19 11:49:40;;;;;;;8.63;4.60;;;;;;;2.42;90.58;99949.53;4990578;28;20220;-53
2021/12/19 11:52:25;;;;;;;8.47;4.73;;;;;;;2.28;90.09;99945.81;4991859;28;20190;-50
2021/12/19 11:55:33;;;;;;;9.43;6.03;;;;;;;2.06;90.37;99954.44;4991772;28;20655;-52
2021/12/19 11:58:32;;;;;;;7.67;4.53;;;;;;;2.12;91.46;99945.59;4985537;28;20209;-53
2021/12/19 12:01:10;;;;;;;9.23;5.40;;;;;;;2.09;91.31;99932.88;4970761;28;20228;-52
2021/12/19 12:03:47;;;;;;;9.47;5.17;;;;;;;1.97;91.43;99935.97;4995636;28;20720;-50
2021/12/19 12:06:41;;;;;;;12.10;6.83;;;;;;;1.90;93.41;99925.91;4995589;28;20224;-58
2021/12/19 12:09:22;;;;;;;8.27;4.67;;;;;;;1.94;91.30;99936.09;4973263;28;20221;-50
2021/12/19 12:12:23;;;;;;;10.60;6.93;;;;;;;1.81;92.05;99922.84;4995084;28;20259;-50
2021/12/19 12:15:07;;;;;;;14.30;10.63;;;;;;;1.70;93.49;99928.44;4954554;29;20418;-53
2021/12/19 12:17:53;;;;;;;9.30;5.10;;;;;;;1.84;92.55;99927.88;4991302;28;20220;-57
2021/12/19 12:20:29;;;;;;;12.30;7.80;;;;;;;1.74;94.51;99920.53;4984859;28;20685;-52
2021/12/19 12:23:00;;;;;;;12.50;7.43;;;;;;;1.96;94.06;99913.69;4995590;28;20227;-53
2021/12/19 12:25:34;;;;;;;29.90;14.47;;;;;;;2.08;95.07;99907.16;4995022;28;20603;-52